Souda — SVBH5 — position and weather

sailwx.info

Track history (hours):
 
Tides and Currents Weather Stations Pressure Air Temp Water Temp Dewpoint Dewpoint Depression Visibility Wind Speed Wind Dir Waves Ship Positions

Souda

Last reported at 2014-Oct-30 00:11 UTC. Time now 2014-Oct-30 13:44 UTC.
Position N 37°55' E 023°07'.

Length 88 m; draft 5.1 m.

Type: Tanker. MMSI: 241109000.

Date/timePositionNaut miles runAvg speedWind from/ knotsBaromVisibWave heightAir tempDewpointWater temp
2014-Oct-30 00:11N 37°55' E 023°07'5 6.6
2014-Oct-29 23:29N 37°53' E 023°12'8 8.9
2014-Oct-29 22:34N 37°51' E 023°22'8 8.5
2014-Oct-29 21:34N 37°51' E 023°33'7 6.5
2014-Oct-29 20:29N 37°57' E 023°35'0 0.0
2014-Oct-29 19:32N 37°57' E 023°35'0 0.0
2014-Oct-29 18:32N 37°57' E 023°35'0 0.0
2014-Oct-29 17:32N 37°57' E 023°35'0 0.0
2014-Oct-29 16:29N 37°57' E 023°35'0 0.0
2014-Oct-29 15:32N 37°57' E 023°35'0 0.0
2014-Oct-29 14:32N 37°57' E 023°35'0 0.0
2014-Oct-29 13:32N 37°57' E 023°35'0 0.0
2014-Oct-29 12:32N 37°57' E 023°35'0 0.0
2014-Oct-29 11:32N 37°57' E 023°35'0 0.0
2014-Oct-29 10:32N 37°57' E 023°35'0 0.0
2014-Oct-29 09:32N 37°57' E 023°35'0 0.0
2014-Oct-29 08:32N 37°57' E 023°35'0 0.0
2014-Oct-29 07:32N 37°57' E 023°35'0 0.0
2014-Oct-29 06:32N 37°57' E 023°35'0 0.0
2014-Oct-29 05:31N 37°57' E 023°35'0 0.0
2014-Oct-29 04:32N 37°57' E 023°35'0 0.0
2014-Oct-29 03:32N 37°57' E 023°35'0 0.0
2014-Oct-29 02:32N 37°57' E 023°35'0 0.0
2014-Oct-29 01:32N 37°57' E 023°35'0 0.0
2014-Oct-29 00:29N 37°57' E 023°35'0 0.0
2014-Oct-28 23:32N 37°57' E 023°35'0 0.1
2014-Oct-28 22:33N 37°57' E 023°35'6 6.2
2014-Oct-28 21:33N 37°51' E 023°34'8 7.7
2014-Oct-28 20:33N 37°51' E 023°24'13 8.7
2014-Oct-28 19:08N 37°53' E 023°09'3 0.2
2014-Oct-28 04:33N 37°55' E 023°05'2 1.7
2014-Oct-28 03:10N 37°54' E 023°08'6 9.0
2014-Oct-28 02:31N 37°52' E 023°15'8 8.8
2014-Oct-28 01:34N 37°50' E 023°25'9 8.7
2014-Oct-28 00:33N 37°49' E 023°36'8 7.9
2014-Oct-27 23:33N 37°44' E 023°43'47 7.3
2014-Oct-27 17:04N 36°57' E 023°55'4 6.9
2014-Oct-27 16:31N 36°54' E 023°56'8 7.3
2014-Oct-27 15:28N 36°46' E 023°58'6 7.0
2014-Oct-27 14:33N 36°40' E 023°59'8 7.6
2014-Oct-27 13:29N 36°32' E 024°01'8 8.0
2014-Oct-27 12:27N 36°24' E 024°03'7 8.0
2014-Oct-27 11:33N 36°17' E 024°05'9 8.1
2014-Oct-27 10:23N 36°08' E 024°07'  
2014-Oct-25 05:31N 37°23' E 023°27'18 0.6
2014-Oct-24 02:32N 37°36' E 023°41'7 7.6
2014-Oct-24 01:33N 37°43' E 023°40'7 7.4
2014-Oct-24 00:33N 37°49' E 023°35'8 8.2
2014-Oct-23 23:33N 37°51' E 023°25'12 0.5
2014-Oct-22 23:29N 37°53' E 023°10'8 8.8
2014-Oct-22 22:33N 37°52' E 023°20'9 8.8
2014-Oct-22 21:33N 37°50' E 023°31'8 7.6
2014-Oct-22 20:33N 37°48' E 023°40'9 8.8
2014-Oct-22 19:32N 37°40' E 023°45'48 8.8
2014-Oct-22 14:05N 36°53' E 023°56'5 8.9
2014-Oct-22 13:33N 36°49' E 023°57'9 9.4
2014-Oct-22 12:33N 36°40' E 023°60'3 0.1
2014-Oct-20 13:33N 36°43' E 023°59'8 8.4
2014-Oct-20 12:33N 36°51' E 023°57'11 8.7
2014-Oct-20 11:19N 37°01' E 023°54'  
Track history (hours):
 
Tides and Currents Weather Stations Pressure Air Temp Water Temp Dewpoint Dewpoint Depression Visibility Wind Speed Wind Dir Waves Ship Positions

Souda

Last reported at 2014-Oct-30 00:11 UTC. Time now 2014-Oct-30 13:44 UTC.
Position N 37°55' E 023°07'.

Length 88 m; draft 5.1 m.

Type: Tanker. MMSI: 241109000.

Date/timePositionNaut miles runAvg speedWind from/ knotsBaromVisibWave heightAir tempDewpointWater temp
2014-Oct-30 00:11N 37°55' E 023°07'5 6.6
2014-Oct-29 23:29N 37°53' E 023°12'8 8.9
2014-Oct-29 22:34N 37°51' E 023°22'8 8.5
2014-Oct-29 21:34N 37°51' E 023°33'7 6.5
2014-Oct-29 20:29N 37°57' E 023°35'0 0.0
2014-Oct-29 19:32N 37°57' E 023°35'0 0.0
2014-Oct-29 18:32N 37°57' E 023°35'0 0.0
2014-Oct-29 17:32N 37°57' E 023°35'0 0.0
2014-Oct-29 16:29N 37°57' E 023°35'0 0.0
2014-Oct-29 15:32N 37°57' E 023°35'0 0.0
2014-Oct-29 14:32N 37°57' E 023°35'0 0.0
2014-Oct-29 13:32N 37°57' E 023°35'0 0.0
2014-Oct-29 12:32N 37°57' E 023°35'0 0.0
2014-Oct-29 11:32N 37°57' E 023°35'0 0.0
2014-Oct-29 10:32N 37°57' E 023°35'0 0.0
2014-Oct-29 09:32N 37°57' E 023°35'0 0.0
2014-Oct-29 08:32N 37°57' E 023°35'0 0.0
2014-Oct-29 07:32N 37°57' E 023°35'0 0.0
2014-Oct-29 06:32N 37°57' E 023°35'0 0.0
2014-Oct-29 05:31N 37°57' E 023°35'0 0.0
2014-Oct-29 04:32N 37°57' E 023°35'0 0.0
2014-Oct-29 03:32N 37°57' E 023°35'0 0.0
2014-Oct-29 02:32N 37°57' E 023°35'0 0.0
2014-Oct-29 01:32N 37°57' E 023°35'0 0.0
2014-Oct-29 00:29N 37°57' E 023°35'0 0.0
2014-Oct-28 23:32N 37°57' E 023°35'0 0.1
2014-Oct-28 22:33N 37°57' E 023°35'6 6.2
2014-Oct-28 21:33N 37°51' E 023°34'8 7.7
2014-Oct-28 20:33N 37°51' E 023°24'13 8.7
2014-Oct-28 19:08N 37°53' E 023°09'3 0.2
2014-Oct-28 04:33N 37°55' E 023°05'2 1.7
2014-Oct-28 03:10N 37°54' E 023°08'6 9.0
2014-Oct-28 02:31N 37°52' E 023°15'8 8.8
2014-Oct-28 01:34N 37°50' E 023°25'9 8.7
2014-Oct-28 00:33N 37°49' E 023°36'8 7.9
2014-Oct-27 23:33N 37°44' E 023°43'47 7.3
2014-Oct-27 17:04N 36°57' E 023°55'4 6.9
2014-Oct-27 16:31N 36°54' E 023°56'8 7.3
2014-Oct-27 15:28N 36°46' E 023°58'6 7.0
2014-Oct-27 14:33N 36°40' E 023°59'8 7.6
2014-Oct-27 13:29N 36°32' E 024°01'8 8.0
2014-Oct-27 12:27N 36°24' E 024°03'7 8.0
2014-Oct-27 11:33N 36°17' E 024°05'9 8.1
2014-Oct-27 10:23N 36°08' E 024°07'  
2014-Oct-25 05:31N 37°23' E 023°27'18 0.6
2014-Oct-24 02:32N 37°36' E 023°41'7 7.6
2014-Oct-24 01:33N 37°43' E 023°40'7 7.4
2014-Oct-24 00:33N 37°49' E 023°35'8 8.2
2014-Oct-23 23:33N 37°51' E 023°25'12 0.5
2014-Oct-22 23:29N 37°53' E 023°10'8 8.8
2014-Oct-22 22:33N 37°52' E 023°20'9 8.8
2014-Oct-22 21:33N 37°50' E 023°31'8 7.6
2014-Oct-22 20:33N 37°48' E 023°40'9 8.8
2014-Oct-22 19:32N 37°40' E 023°45'48 8.8
2014-Oct-22 14:05N 36°53' E 023°56'5 8.9
2014-Oct-22 13:33N 36°49' E 023°57'9 9.4
2014-Oct-22 12:33N 36°40' E 023°60'3 0.1
2014-Oct-20 13:33N 36°43' E 023°59'8 8.4
2014-Oct-20 12:33N 36°51' E 023°57'11 8.7
2014-Oct-20 11:19N 37°01' E 023°54'  

Dump ship's entire track history